CKS9 weather

Shepherd's Landing Airport
Kincardine, Ontario, Canada

Public forecast

Using degrees Celsius for public forecast. Weather courtesy of forecast.io.

Closest aviation weather report (METAR) to Shepherd's Landing Airport

Closest report is Wiarton Airport, 45.4 nm (84.2 km) NNE. Retrieved 2020/08/06 01:00 UTC (31 minutes ago):

CYVV 060100Z 20003KT 15SM FEW090 SCT250 14/11 A3006 RMK AC1CI3 SLP184

Closest aviation forecast (TAF) to Shepherd's Landing Airport

Closest forecast is Wiarton Airport, 45.4 nm (84.2 km) NNE. Retrieved 2020/08/05 20:00 UTC (6 hours ago):

TAF CYVV 051938Z 0520/0523 27010KT P6SM SCT020 TEMPO 0520/0522 BKN020 FM052200 27010KT P6SM FEW060 RMK NXT FCST WILL BE ISSUED AT 061045Z